Time;durP1;ratioP1;P1;durP2;ratioP2;P2;SDS_P1;SDS_P2;PMS_P1;PMS_P2;Temp;Humidity;BMP_temperature;BMP_pressure;BME280_temperature;BME280_humidity;BME280_pressure;Samples;Min_cycle;Max_cycle;Signal;HPM_P1;HPM_P2
2023/01/31 00:02:00;;;;;;;16.45;8.38;;;;;;;;;;5042363;28;20033;-72
2023/01/31 00:04:26;;;;;;;14.70;7.63;;;;;;;;;;5059689;28;20201;-72
2023/01/31 00:06:52;;;;;;;16.00;8.10;;;;;;;;;;5060122;28;20063;-73
2023/01/31 00:09:18;;;;;;;15.15;7.47;;;;;;;;;;5060137;28;20305;-71
2023/01/31 00:11:44;;;;;;;13.77;7.68;;;;;;;;;;5060099;28;20032;-72
2023/01/31 00:14:16;;;;;;;15.52;8.00;;;;;;;;;;5059920;28;20033;-72
2023/01/31 00:16:41;;;;;;;14.32;7.57;;;;;;;;;;5060189;28;20217;-73
2023/01/31 00:19:07;;;;;;;13.65;7.28;;;;;;;;;;5059781;28;20029;-72
2023/01/31 00:21:32;;;;;;;14.25;7.63;;;;;;;;;;5060022;28;20078;-73
2023/01/31 00:23:58;;;;;;;15.23;7.72;;;;;;;;;;5059788;28;20171;-72
2023/01/31 00:26:29;;;;;;;14.55;7.43;;;;;;;;;;5060010;28;20037;-71
2023/01/31 00:28:56;;;;;;;14.70;7.18;;;;;;;;;;5060565;28;20116;-73
2023/01/31 00:31:23;;;;;;;16.08;7.53;;;;;;;;;;5063909;28;20029;-73
2023/01/31 00:33:50;;;;;;;13.80;7.70;;;;;;;;;;5063244;28;20405;-72
2023/01/31 00:36:18;;;;;;;16.65;7.85;;;;;;;;;;5063611;28;20414;-74
2023/01/31 00:38:44;;;;;;;16.13;8.85;;;;;;;;;;5079991;28;20422;-73
2023/01/31 00:41:10;;;;;;;16.38;8.68;;;;;;;;;;5083712;28;20036;-72
2023/01/31 00:43:36;;;;;;;15.13;8.57;;;;;;;;;;5083151;28;20126;-74
2023/01/31 00:46:01;;;;;;;15.65;8.38;;;;;;;;;;5083560;28;20043;-74
2023/01/31 00:48:27;;;;;;;18.15;8.70;;;;;;;;;;5082983;28;20044;-72
2023/01/31 00:50:52;;;;;;;17.92;8.77;;;;;;;;;;5083473;28;20036;-75
2023/01/31 00:53:22;;;;;;;17.08;8.55;;;;;;;;;;5083315;28;20108;-73
2023/01/31 00:55:52;;;;;;;16.83;8.77;;;;;;;;;;5083355;28;20484;-72
2023/01/31 00:58:18;;;;;;;17.50;9.02;;;;;;;;;;5083178;28;20024;-72
2023/01/31 01:00:43;;;;;;;17.48;9.35;;;;;;;;;;5083280;28;20024;-72
2023/01/31 01:03:09;;;;;;;19.63;9.30;;;;;;;;;;5082596;28;20041;-74
2023/01/31 01:05:34;;;;;;;20.05;9.38;;;;;;;;;;5065195;28;20099;-71
2023/01/31 01:08:00;;;;;;;20.58;9.30;;;;;;;;;;5083345;28;20073;-73
2023/01/31 01:10:25;;;;;;;16.42;8.88;;;;;;;;;;5083069;28;20016;-73
2023/01/31 01:12:51;;;;;;;16.73;8.95;;;;;;;;;;5082943;28;20049;-73
2023/01/31 01:15:16;;;;;;;18.52;8.88;;;;;;;;;;5082980;28;20046;-72
2023/01/31 01:17:41;;;;;;;20.55;9.50;;;;;;;;;;5082870;28;20033;-72
2023/01/31 01:20:08;;;;;;;17.77;8.38;;;;;;;;;;5082492;28;20028;-72
2023/01/31 01:22:33;;;;;;;17.55;8.68;;;;;;;;;;5082897;28;20027;-72
2023/01/31 01:24:59;;;;;;;16.65;8.52;;;;;;;;;;5082629;28;20032;-72
2023/01/31 01:27:26;;;;;;;16.52;7.80;;;;;;;;;;5082815;28;20028;-73
2023/01/31 01:29:51;;;;;;;15.85;8.10;;;;;;;;;;5082809;28;20335;-72
2023/01/31 01:32:17;;;;;;;16.73;7.80;;;;;;;;;;5082735;28;20032;-72
2023/01/31 01:34:42;;;;;;;15.73;8.07;;;;;;;;;;5063998;28;20033;-72
2023/01/31 01:37:18;;;;;;;17.15;8.30;;;;;;;;;;5082753;28;20043;-71
2023/01/31 01:39:45;;;;;;;16.95;8.45;;;;;;;;;;5082111;28;20039;-73
2023/01/31 01:42:17;;;;;;;16.88;7.85;;;;;;;;;;5081755;28;20331;-73
2023/01/31 01:44:58;;;;;;;15.75;8.23;;;;;;;;;;5064469;28;20037;-73
2023/01/31 01:47:45;;;;;;;16.30;8.13;;;;;;;;;;5082494;28;20039;-72
2023/01/31 01:50:19;;;;;;;14.73;8.20;;;;;;;;;;5081934;28;20016;-73
2023/01/31 01:52:50;;;;;;;15.35;8.32;;;;;;;;;;5082309;28;20028;-73
2023/01/31 01:55:15;;;;;;;13.93;7.88;;;;;;;;;;5081984;28;20033;-73
2023/01/31 01:57:43;;;;;;;15.40;8.05;;;;;;;;;;5081949;28;20339;-73
2023/01/31 02:00:14;;;;;;;14.80;8.15;;;;;;;;;;5082198;28;20024;-72
2023/01/31 02:02:40;;;;;;;14.77;7.90;;;;;;;;;;5082339;28;20040;-73
2023/01/31 02:05:07;;;;;;;14.80;8.10;;;;;;;;;;5081515;28;20044;-72
2023/01/31 02:07:33;;;;;;;16.35;8.38;;;;;;;;;;5082051;28;20028;-73
2023/01/31 02:10:20;;;;;;;16.35;8.23;;;;;;;;;;5081771;28;20024;-72
2023/01/31 02:12:46;;;;;;;16.90;8.07;;;;;;;;;;5081784;28;20028;-72
2023/01/31 02:15:11;;;;;;;16.45;7.65;;;;;;;;;;5081452;28;20029;-73
2023/01/31 02:17:36;;;;;;;14.00;7.85;;;;;;;;;;5081933;28;20035;-72
2023/01/31 02:20:05;;;;;;;16.92;8.20;;;;;;;;;;5081445;28;20024;-72
2023/01/31 02:22:55;;;;;;;16.15;8.05;;;;;;;;;;5081646;28;20051;-73
2023/01/31 02:25:42;;;;;;;15.07;7.63;;;;;;;;;;5081391;28;20021;-73
2023/01/31 02:28:10;;;;;;;15.48;8.02;;;;;;;;;;5081498;28;20330;-72
2023/01/31 02:30:54;;;;;;;15.40;8.05;;;;;;;;;;5081620;28;20300;-72
2023/01/31 02:33:54;;;;;;;14.00;7.57;;;;;;;;;;5080827;28;20213;-73
2023/01/31 02:36:46;;;;;;;14.30;7.65;;;;;;;;;;5081470;28;20039;-74
2023/01/31 02:39:17;;;;;;;14.43;7.55;;;;;;;;;;5081270;28;20024;-74
2023/01/31 02:41:47;;;;;;;14.35;7.65;;;;;;;;;;5081305;28;20048;-72
2023/01/31 02:47:18;;;;;;;17.05;8.02;;;;;;;;;;5081234;28;20035;-72
2023/01/31 02:49:43;;;;;;;15.18;8.15;;;;;;;;;;5080555;28;20052;-71
2023/01/31 02:52:30;;;;;;;14.80;7.65;;;;;;;;;;5080841;28;20078;-72
2023/01/31 02:57:52;;;;;;;14.63;7.07;;;;;;;;;;5081022;28;20051;-74
2023/01/31 03:00:19;;;;;;;16.85;7.45;;;;;;;;;;5080953;28;20048;-73
2023/01/31 03:02:45;;;;;;;13.80;7.18;;;;;;;;;;5080770;28;20079;-72
2023/01/31 03:05:17;;;;;;;15.10;7.55;;;;;;;;;;5080274;28;20259;-72
2023/01/31 03:07:48;;;;;;;15.00;7.65;;;;;;;;;;5081019;28;20035;-71
2023/01/31 03:10:35;;;;;;;15.00;7.63;;;;;;;;;;5080731;28;20029;-72
2023/01/31 03:13:14;;;;;;;13.40;7.40;;;;;;;;;;5080883;28;20040;-72
2023/01/31 03:19:18;;;;;;;16.05;7.68;;;;;;;;;;5080350;28;20032;-73
2023/01/31 03:21:48;;;;;;;13.90;7.10;;;;;;;;;;5080628;28;20041;-72
2023/01/31 03:24:15;;;;;;;13.87;7.37;;;;;;;;;;5080453;28;20024;-72
2023/01/31 03:26:41;;;;;;;14.73;7.60;;;;;;;;;;5080762;28;20028;-72
2023/01/31 03:29:09;;;;;;;14.85;7.05;;;;;;;;;;5080476;28;20020;-71
2023/01/31 03:31:42;;;;;;;14.90;7.22;;;;;;;;;;5080672;28;20029;-72
2023/01/31 03:34:10;;;;;;;15.13;7.43;;;;;;;;;;5080175;28;20028;-73
2023/01/31 03:36:52;;;;;;;15.07;7.45;;;;;;;;;;5080842;28;20244;-73
2023/01/31 03:39:39;;;;;;;14.10;7.32;;;;;;;;;;5084700;28;20416;-72
2023/01/31 03:42:18;;;;;;;13.20;7.22;;;;;;;;;;5087031;28;20291;-73
2023/01/31 03:45:06;;;;;;;11.75;6.93;;;;;;;;;;5081028;28;20067;-73
2023/01/31 03:47:42;;;;;;;12.65;6.55;;;;;;;;;;5080705;28;20047;-71
2023/01/31 03:50:14;;;;;;;15.30;7.63;;;;;;;;;;5079835;28;20025;-72
2023/01/31 03:52:47;;;;;;;18.63;7.95;;;;;;;;;;5080628;28;20021;-72
2023/01/31 03:55:20;;;;;;;13.23;6.63;;;;;;;;;;5080112;28;20090;-72
2023/01/31 03:57:50;;;;;;;13.05;7.00;;;;;;;;;;5080347;28;20051;-73
2023/01/31 04:00:19;;;;;;;15.90;7.40;;;;;;;;;;5062327;28;20204;-74
2023/01/31 04:02:48;;;;;;;13.88;7.05;;;;;;;;;;5080142;28;20105;-74
2023/01/31 04:05:18;;;;;;;16.35;7.53;;;;;;;;;;5065053;28;20228;-73
2023/01/31 04:07:44;;;;;;;12.73;7.18;;;;;;;;;;5084351;28;20308;-75
2023/01/31 04:10:16;;;;;;;13.98;7.43;;;;;;;;;;5084162;28;20059;-74
2023/01/31 04:12:41;;;;;;;13.98;7.10;;;;;;;;;;5084304;28;20024;-73
2023/01/31 04:15:08;;;;;;;12.57;6.68;;;;;;;;;;5083542;28;20035;-73
2023/01/31 04:17:33;;;;;;;12.20;7.03;;;;;;;;;;5084056;28;20020;-73
2023/01/31 04:19:59;;;;;;;13.30;7.07;;;;;;;;;;5083799;28;20031;-72
2023/01/31 04:22:24;;;;;;;11.57;6.63;;;;;;;;;;5083985;28;20434;-74
2023/01/31 04:24:50;;;;;;;16.02;7.03;;;;;;;;;;5083722;28;20227;-73
2023/01/31 04:27:15;;;;;;;12.30;6.80;;;;;;;;;;5084101;28;20044;-73
2023/01/31 04:29:40;;;;;;;13.25;6.72;;;;;;;;;;5083705;28;20073;-73
2023/01/31 04:32:06;;;;;;;15.32;7.63;;;;;;;;;;5083671;28;20050;-72
2023/01/31 04:34:31;;;;;;;14.07;7.28;;;;;;;;;;5083301;28;20446;-74
2023/01/31 04:36:57;;;;;;;12.32;7.07;;;;;;;;;;5083656;28;20044;-72
2023/01/31 04:39:22;;;;;;;13.45;7.07;;;;;;;;;;5083922;28;20461;-73
2023/01/31 04:41:47;;;;;;;16.02;7.88;;;;;;;;;;5083621;28;20024;-71
2023/01/31 04:44:13;;;;;;;14.35;7.18;;;;;;;;;;5082876;28;20458;-72
2023/01/31 04:46:38;;;;;;;12.60;7.05;;;;;;;;;;5083280;28;20028;-72
2023/01/31 04:49:04;;;;;;;14.05;7.40;;;;;;;;;;5083103;28;20025;-73
2023/01/31 04:51:29;;;;;;;14.90;7.25;;;;;;;;;;5083196;28;20020;-72
2023/01/31 04:53:55;;;;;;;12.40;6.95;;;;;;;;;;5083552;28;20024;-73
2023/01/31 04:56:21;;;;;;;16.27;6.88;;;;;;;;;;5082942;28;20035;-72
2023/01/31 04:58:47;;;;;;;14.32;7.63;;;;;;;;;;5083198;28;20023;-73
2023/01/31 05:01:13;;;;;;;16.60;7.90;;;;;;;;;;5083340;28;20032;-71
2023/01/31 05:03:38;;;;;;;14.48;7.82;;;;;;;;;;5082792;28;20033;-73
2023/01/31 05:06:04;;;;;;;15.13;7.70;;;;;;;;;;5082890;28;20020;-72
2023/01/31 05:08:29;;;;;;;15.10;8.20;;;;;;;;;;5083126;28;20380;-73
2023/01/31 05:10:59;;;;;;;15.82;8.30;;;;;;;;;;5082941;28;20025;-73
2023/01/31 05:13:24;;;;;;;13.95;7.55;;;;;;;;;;5065121;28;20099;-73
2023/01/31 05:15:50;;;;;;;14.82;8.02;;;;;;;;;;5082705;28;20032;-73
2023/01/31 05:18:15;;;;;;;15.60;8.02;;;;;;;;;;5083139;28;20332;-72
2023/01/31 05:20:42;;;;;;;16.08;8.27;;;;;;;;;;5082560;28;20033;-73
2023/01/31 05:23:08;;;;;;;15.77;8.10;;;;;;;;;;5083048;28;20039;-74
2023/01/31 05:25:35;;;;;;;17.08;8.90;;;;;;;;;;5082544;28;20173;-73
2023/01/31 05:28:01;;;;;;;15.98;8.23;;;;;;;;;;5082583;28;20028;-73
2023/01/31 05:30:26;;;;;;;16.10;8.30;;;;;;;;;;5082701;28;20082;-73
2023/01/31 05:32:51;;;;;;;16.40;8.48;;;;;;;;;;5082875;28;20028;-72
2023/01/31 05:35:17;;;;;;;14.35;7.65;;;;;;;;;;5081932;28;20032;-72
2023/01/31 05:37:43;;;;;;;14.50;7.82;;;;;;;;;;5082627;28;20189;-73
2023/01/31 05:40:14;;;;;;;15.32;8.35;;;;;;;;;;5082567;28;20032;-72
2023/01/31 05:42:40;;;;;;;16.27;8.80;;;;;;;;;;5064508;28;20332;-71
2023/01/31 05:45:07;;;;;;;14.65;7.68;;;;;;;;;;5082315;28;20343;-73
2023/01/31 05:47:33;;;;;;;15.23;8.57;;;;;;;;;;5078978;28;20320;-73
2023/01/31 05:49:58;;;;;;;14.90;8.40;;;;;;;;;;5082104;28;20031;-73
2023/01/31 05:52:23;;;;;;;18.25;8.18;;;;;;;;;;5082218;28;20025;-74
2023/01/31 05:54:49;;;;;;;15.90;8.05;;;;;;;;;;5082057;28;20036;-73
2023/01/31 05:57:14;;;;;;;15.68;8.10;;;;;;;;;;5081966;28;20031;-73
2023/01/31 05:59:40;;;;;;;14.88;8.07;;;;;;;;;;5082218;28;20017;-73
2023/01/31 06:02:07;;;;;;;14.85;7.75;;;;;;;;;;5081618;28;20213;-73
2023/01/31 06:04:33;;;;;;;13.60;8.15;;;;;;;;;;5081748;28;20092;-74
2023/01/31 06:06:58;;;;;;;15.38;7.97;;;;;;;;;;5081925;28;20024;-72
2023/01/31 06:09:24;;;;;;;14.07;7.43;;;;;;;;;;5082014;28;20030;-74
2023/01/31 06:11:49;;;;;;;16.13;7.95;;;;;;;;;;5081616;28;20035;-74
2023/01/31 06:14:15;;;;;;;14.90;7.65;;;;;;;;;;5081948;28;20035;-73
2023/01/31 06:16:40;;;;;;;15.40;8.38;;;;;;;;;;5081669;28;20021;-73
2023/01/31 06:19:06;;;;;;;15.35;8.25;;;;;;;;;;5081666;28;20021;-73
2023/01/31 06:21:31;;;;;;;15.82;8.07;;;;;;;;;;5088759;28;20047;-71
2023/01/31 06:23:56;;;;;;;15.25;7.85;;;;;;;;;;5087510;28;20023;-73
2023/01/31 06:26:22;;;;;;;21.92;9.13;;;;;;;;;;5081323;28;20213;-73
2023/01/31 06:28:48;;;;;;;18.00;8.18;;;;;;;;;;5082046;28;20028;-73
2023/01/31 06:31:13;;;;;;;18.60;8.85;;;;;;;;;;5081498;28;20032;-73
2023/01/31 06:33:38;;;;;;;13.80;7.30;;;;;;;;;;5081069;28;20178;-73
2023/01/31 06:36:04;;;;;;;15.90;7.93;;;;;;;;;;5081148;28;20037;-73
2023/01/31 06:38:30;;;;;;;18.00;8.73;;;;;;;;;;5081276;28;20106;-72
2023/01/31 06:40:56;;;;;;;18.08;8.52;;;;;;;;;;5081309;28;20212;-72
2023/01/31 06:43:21;;;;;;;18.25;8.70;;;;;;;;;;5081184;28;20032;-72
2023/01/31 06:45:48;;;;;;;16.25;7.82;;;;;;;;;;5081134;28;20051;-72
2023/01/31 06:48:14;;;;;;;16.83;8.57;;;;;;;;;;5081252;28;20024;-74
2023/01/31 06:50:40;;;;;;;14.23;7.88;;;;;;;;;;5080792;28;20044;-73
2023/01/31 06:53:05;;;;;;;14.80;7.70;;;;;;;;;;5080948;28;20025;-73
2023/01/31 06:55:31;;;;;;;14.00;8.05;;;;;;;;;;5080661;28;20033;-72
2023/01/31 06:57:56;;;;;;;14.82;7.80;;;;;;;;;;5080867;28;20027;-73
2023/01/31 07:00:24;;;;;;;13.80;7.70;;;;;;;;;;5081042;28;20024;-74
2023/01/31 07:02:50;;;;;;;18.83;7.75;;;;;;;;;;5080821;28;20064;-72
2023/01/31 07:05:16;;;;;;;17.00;8.35;;;;;;;;;;5080525;28;20092;-73
2023/01/31 07:07:41;;;;;;;14.43;8.60;;;;;;;;;;5080810;28;20213;-73
2023/01/31 07:10:08;;;;;;;17.05;8.73;;;;;;;;;;5080915;28;20415;-73
2023/01/31 07:12:33;;;;;;;19.23;8.85;;;;;;;;;;5080730;28;20021;-74
2023/01/31 07:14:58;;;;;;;16.02;8.40;;;;;;;;;;5080788;28;20194;-74
2023/01/31 07:17:24;;;;;;;16.50;8.45;;;;;;;;;;5080480;28;20102;-73
2023/01/31 07:19:49;;;;;;;19.02;8.15;;;;;;;;;;5080414;28;20016;-73
2023/01/31 07:22:14;;;;;;;16.92;7.78;;;;;;;;;;5080605;28;20032;-73
2023/01/31 07:24:40;;;;;;;15.63;8.50;;;;;;;;;;5080734;28;20025;-73
2023/01/31 07:27:05;;;;;;;17.35;8.25;;;;;;;;;;5080396;28;20021;-74
2023/01/31 07:29:31;;;;;;;16.85;7.72;;;;;;;;;;5080441;28;20025;-73
2023/01/31 07:31:56;;;;;;;16.65;7.82;;;;;;;;;;5080444;28;20033;-74
2023/01/31 07:34:22;;;;;;;16.63;8.57;;;;;;;;;;5080040;28;20020;-72
2023/01/31 07:36:49;;;;;;;15.90;8.27;;;;;;;;;;5080413;28;20024;-74
2023/01/31 07:39:14;;;;;;;14.38;8.40;;;;;;;;;;5080821;28;20096;-72
2023/01/31 07:41:40;;;;;;;16.45;8.60;;;;;;;;;;5080393;28;20020;-73
2023/01/31 07:44:07;;;;;;;15.43;8.32;;;;;;;;;;5080278;28;20304;-72
2023/01/31 07:46:34;;;;;;;16.88;8.18;;;;;;;;;;5074998;28;20587;-74
2023/01/31 07:48:59;;;;;;;16.08;8.88;;;;;;;;;;5068171;28;20030;-80
2023/01/31 07:51:25;;;;;;;16.45;9.80;;;;;;;;;;5068775;28;20104;-77
2023/01/31 07:53:50;;;;;;;15.88;8.93;;;;;;;;;;5068553;28;20491;-74
2023/01/31 07:56:18;;;;;;;16.77;8.70;;;;;;;;;;5068587;28;20043;-74
2023/01/31 07:58:45;;;;;;;18.20;8.65;;;;;;;;;;5068251;28;20115;-77
2023/01/31 08:04:04;;;;;;;18.25;8.52;;;;;;;;;;5068052;28;20044;-76
2023/01/31 08:06:30;;;;;;;17.45;8.35;;;;;;;;;;5068286;28;20506;-73
2023/01/31 08:08:56;;;;;;;18.67;9.00;;;;;;;;;;5058812;28;20036;-74
2023/01/31 08:11:21;;;;;;;21.85;8.65;;;;;;;;;;5067448;28;20051;-76
2023/01/31 08:13:47;;;;;;;15.85;8.18;;;;;;;;;;5049657;28;20021;-72
2023/01/31 08:16:12;;;;;;;22.55;9.27;;;;;;;;;;5053117;28;20131;-72
2023/01/31 08:18:38;;;;;;;15.55;8.05;;;;;;;;;;5067995;28;20036;-72
2023/01/31 08:21:04;;;;;;;17.67;8.63;;;;;;;;;;5068342;28;20448;-73
2023/01/31 08:23:30;;;;;;;18.90;9.07;;;;;;;;;;5069301;28;20078;-75
2023/01/31 08:26:04;;;;;;;17.52;8.20;;;;;;;;;;5056904;28;20033;-75
2023/01/31 08:28:30;;;;;;;14.85;8.27;;;;;;;;;;5048956;28;20084;-72
2023/01/31 08:30:56;;;;;;;21.45;9.63;;;;;;;;;;5050043;28;20407;-73
2023/01/31 08:33:22;;;;;;;20.17;9.25;;;;;;;;;;5051139;28;20037;-74
2023/01/31 08:35:48;;;;;;;21.63;9.38;;;;;;;;;;5030327;28;20597;-77
2023/01/31 08:38:13;;;;;;;19.60;9.15;;;;;;;;;;5050679;28;20033;-74
2023/01/31 08:40:39;;;;;;;15.57;8.13;;;;;;;;;;5050247;28;20031;-74
2023/01/31 08:43:04;;;;;;;17.55;8.55;;;;;;;;;;5066063;28;20144;-74
2023/01/31 08:45:30;;;;;;;20.40;8.73;;;;;;;;;;5069925;28;20023;-76
2023/01/31 08:47:57;;;;;;;17.33;8.27;;;;;;;;;;5067821;28;20111;-72
2023/01/31 08:50:24;;;;;;;17.30;8.27;;;;;;;;;;5069235;28;20033;-76
2023/01/31 08:53:00;;;;;;;16.42;8.38;;;;;;;;;;5071592;28;20424;-79
2023/01/31 08:55:28;;;;;;;18.77;8.48;;;;;;;;;;5071749;28;20035;-77
2023/01/31 08:57:54;;;;;;;17.88;8.98;;;;;;;;;;5071605;28;20020;-73
2023/01/31 09:00:20;;;;;;;16.95;8.77;;;;;;;;;;5071653;28;20032;-72
2023/01/31 09:02:53;;;;;;;18.30;9.75;;;;;;;;;;5071888;28;20055;-72
2023/01/31 09:05:19;;;;;;;23.10;10.15;;;;;;;;;;5073434;28;20082;-72
2023/01/31 09:07:44;;;;;;;14.82;8.95;;;;;;;;;;5075922;28;20033;-73
2023/01/31 09:10:11;;;;;;;19.27;9.30;;;;;;;;;;5075067;28;20051;-73
2023/01/31 09:12:36;;;;;;;17.02;9.05;;;;;;;;;;5072427;28;20029;-72
2023/01/31 09:15:03;;;;;;;21.02;9.52;;;;;;;;;;5071428;28;20119;-72
2023/01/31 09:17:29;;;;;;;22.27;9.68;;;;;;;;;;5052110;28;20484;-72
2023/01/31 09:19:55;;;;;;;18.75;9.68;;;;;;;;;;5069961;28;20020;-72
2023/01/31 09:22:21;;;;;;;24.90;9.40;;;;;;;;;;5067577;28;20610;-72
2023/01/31 09:24:47;;;;;;;17.85;9.40;;;;;;;;;;5062211;28;20029;-72
2023/01/31 09:27:12;;;;;;;19.73;9.45;;;;;;;;;;5059892;28;20031;-72
2023/01/31 09:29:38;;;;;;;17.58;8.73;;;;;;;;;;5050728;28;20378;-72
2023/01/31 09:32:03;;;;;;;19.95;8.82;;;;;;;;;;5066751;28;20587;-72
2023/01/31 09:34:29;;;;;;;19.13;8.60;;;;;;;;;;5074084;28;20037;-73
2023/01/31 09:36:56;;;;;;;25.05;8.40;;;;;;;;;;5082510;28;20032;-72
2023/01/31 09:39:22;;;;;;;25.70;8.43;;;;;;;;;;5076608;28;20025;-72
2023/01/31 09:41:53;;;;;;;19.50;8.77;;;;;;;;;;5062881;28;20461;-72
2023/01/31 09:44:27;;;;;;;21.38;7.72;;;;;;;;;;5062369;28;20044;-72
2023/01/31 09:47:09;;;;;;;17.80;8.52;;;;;;;;;;5053044;28;20052;-72
2023/01/31 09:49:44;;;;;;;14.27;8.68;;;;;;;;;;5066510;28;20530;-73
2023/01/31 09:52:11;;;;;;;14.45;7.60;;;;;;;;;;5070550;28;20545;-73
2023/01/31 09:54:39;;;;;;;20.45;8.68;;;;;;;;;;5052507;28;20081;-73
2023/01/31 09:57:16;;;;;;;16.42;7.40;;;;;;;;;;5070329;28;20052;-74
2023/01/31 09:59:58;;;;;;;19.30;8.55;;;;;;;;;;5073834;28;20059;-73
2023/01/31 10:02:40;;;;;;;15.00;8.00;;;;;;;;;;5064917;28;20121;-73
2023/01/31 10:05:12;;;;;;;17.17;7.82;;;;;;;;;;5048538;28;20063;-73
2023/01/31 10:07:48;;;;;;;17.92;8.60;;;;;;;;;;5049618;28;20477;-73
2023/01/31 10:10:27;;;;;;;21.58;7.97;;;;;;;;;;5049831;28;20029;-74
2023/01/31 10:12:59;;;;;;;16.30;7.85;;;;;;;;;;5049480;28;20029;-72
2023/01/31 10:15:38;;;;;;;15.88;8.60;;;;;;;;;;5047760;28;20051;-74
2023/01/31 10:18:20;;;;;;;24.10;8.77;;;;;;;;;;5048254;28;20400;-74
2023/01/31 10:21:05;;;;;;;19.67;8.90;;;;;;;;;;5047878;28;20029;-73
2023/01/31 10:23:51;;;;;;;24.17;10.10;;;;;;;;;;5048225;28;20025;-74
2023/01/31 10:26:22;;;;;;;18.27;8.40;;;;;;;;;;5048249;28;20056;-72
2023/01/31 10:28:55;;;;;;;;;;;;;;;;;;5049423;28;20025;-73
2023/01/31 10:31:20;;;;;;;16.67;8.02;;;;;;;;;;5032237;28;19979;-73
2023/01/31 10:34:01;;;;;;;17.77;7.10;;;;;;;;;;5049466;28;20053;-73
2023/01/31 10:36:49;;;;;;;12.02;6.38;;;;;;;;;;5048758;28;20083;-73
2023/01/31 10:39:30;;;;;;;13.75;5.82;;;;;;;;;;5049767;28;20400;-73
2023/01/31 10:42:11;;;;;;;14.65;6.65;;;;;;;;;;5049918;28;20024;-73
2023/01/31 10:44:48;;;;;;;10.80;5.63;;;;;;;;;;5049229;28;20039;-74
2023/01/31 10:47:15;;;;;;;12.98;6.00;;;;;;;;;;5049558;28;20090;-74
2023/01/31 10:49:46;;;;;;;9.55;5.70;;;;;;;;;;5049281;28;20024;-73
2023/01/31 10:52:43;;;;;;;9.90;5.40;;;;;;;;;;5049877;28;20068;-72
2023/01/31 10:55:27;;;;;;;9.80;5.13;;;;;;;;;;5045174;28;20049;-72
2023/01/31 10:57:53;;;;;;;9.38;4.90;;;;;;;;;;5049436;28;20025;-72
2023/01/31 11:00:28;;;;;;;7.78;5.03;;;;;;;;;;5049071;28;20025;-73
2023/01/31 11:02:53;;;;;;;9.57;4.82;;;;;;;;;;5049288;28;20128;-73
2023/01/31 11:05:23;;;;;;;12.48;5.07;;;;;;;;;;5048886;28;20453;-74
2023/01/31 11:07:49;;;;;;;9.25;4.93;;;;;;;;;;5049423;28;20017;-73
2023/01/31 11:10:26;;;;;;;9.20;5.53;;;;;;;;;;5049493;28;20057;-71
2023/01/31 11:13:04;;;;;;;8.60;5.18;;;;;;;;;;5049174;28;20033;-76
2023/01/31 11:15:38;;;;;;;13.57;5.10;;;;;;;;;;5048987;28;20542;-71
2023/01/31 11:18:04;;;;;;;12.23;5.22;;;;;;;;;;5048714;28;20432;-69
2023/01/31 11:20:42;;;;;;;11.13;5.25;;;;;;;;;;5048603;28;20481;-68
2023/01/31 11:23:12;;;;;;;7.85;4.63;;;;;;;;;;5049000;28;20025;-76
2023/01/31 11:25:38;;;;;;;9.93;4.57;;;;;;;;;;5048821;28;20604;-75
2023/01/31 11:28:17;;;;;;;9.57;4.65;;;;;;;;;;5048931;28;20031;-73
2023/01/31 11:30:48;;;;;;;6.63;4.40;;;;;;;;;;5075429;28;20119;-73
2023/01/31 11:33:43;;;;;;;6.90;4.05;;;;;;;;;;5069859;28;20032;-72
2023/01/31 11:36:21;;;;;;;10.05;4.00;;;;;;;;;;5059908;28;20033;-72
2023/01/31 11:38:50;;;;;;;8.60;4.40;;;;;;;;;;5070587;28;20117;-74
2023/01/31 11:41:30;;;;;;;9.77;4.18;;;;;;;;;;5068490;28;20027;-71
2023/01/31 11:44:16;;;;;;;7.30;3.70;;;;;;;;;;5068869;28;20033;-72
2023/01/31 11:46:43;;;;;;;7.30;3.78;;;;;;;;;;5067911;28;20476;-72
2023/01/31 11:49:17;;;;;;;5.95;3.10;;;;;;;;;;5068157;28;20028;-72
2023/01/31 11:51:44;;;;;;;4.57;2.92;;;;;;;;;;5068149;28;20469;-71
2023/01/31 11:54:18;;;;;;;5.75;3.20;;;;;;;;;;5069032;28;20036;-71
2023/01/31 11:56:45;;;;;;;6.28;2.70;;;;;;;;;;5068456;28;20032;-72
2023/01/31 11:59:16;;;;;;;6.78;3.00;;;;;;;;;;5068877;28;20048;-71
2023/01/31 12:01:52;;;;;;;3.72;1.90;;;;;;;;;;5068276;28;20102;-72
2023/01/31 12:04:40;;;;;;;3.95;2.00;;;;;;;;;;5068726;28;20033;-74
2023/01/31 12:07:23;;;;;;;3.45;1.90;;;;;;;;;;5068508;28;20384;-73
2023/01/31 12:09:48;;;;;;;5.00;2.00;;;;;;;;;;5068434;28;20033;-72
2023/01/31 12:12:33;;;;;;;4.03;1.80;;;;;;;;;;5068199;28;20017;-74
2023/01/31 12:15:12;;;;;;;3.53;1.63;;;;;;;;;;5068280;28;20036;-74
2023/01/31 12:17:44;;;;;;;3.55;1.45;;;;;;;;;;5068367;28;20115;-76
2023/01/31 12:20:36;;;;;;;3.47;1.50;;;;;;;;;;5068258;28;20021;-76
2023/01/31 12:23:09;;;;;;;2.58;1.40;;;;;;;;;;5068605;28;20562;-79
2023/01/31 12:25:50;;;;;;;1.85;1.05;;;;;;;;;;5070226;28;20510;-76
2023/01/31 12:28:34;;;;;;;1.52;1.00;;;;;;;;;;5054254;28;20629;-74
2023/01/31 12:31:17;;;;;;;2.30;1.08;;;;;;;;;;5073513;28;20029;-73
2023/01/31 12:33:46;;;;;;;2.95;0.90;;;;;;;;;;5074284;28;20024;-79
2023/01/31 12:36:58;;;;;;;1.48;1.00;;;;;;;;;;5071929;28;20421;-75
2023/01/31 12:39:48;;;;;;;2.35;1.20;;;;;;;;;;5013305;28;20196;-78
2023/01/31 12:42:23;;;;;;;2.67;1.50;;;;;;;;;;5071221;28;20056;-77
2023/01/31 12:45:11;;;;;;;2.70;1.50;;;;;;;;;;5072347;28;20032;-75
2023/01/31 12:48:03;;;;;;;3.17;1.52;;;;;;;;;;5071223;28;20025;-73
2023/01/31 12:50:50;;;;;;;2.92;1.40;;;;;;;;;;5078604;28;20039;-72
2023/01/31 12:53:34;;;;;;;6.10;1.70;;;;;;;;;;5064793;28;20157;-72
2023/01/31 12:56:23;;;;;;;2.70;1.50;;;;;;;;;;5071299;28;20518;-74
2023/01/31 12:59:20;;;;;;;4.00;1.30;;;;;;;;;;5057413;28;20119;-74
2023/01/31 13:01:53;;;;;;;3.17;1.33;;;;;;;;;;5074266;28;20135;-72
2023/01/31 13:04:31;;;;;;;2.55;1.38;;;;;;;;;;5070806;28;20024;-72
2023/01/31 13:07:01;;;;;;;2.47;1.42;;;;;;;;;;5071220;28;20032;-71
2023/01/31 13:09:31;;;;;;;4.53;1.60;;;;;;;;;;5070402;28;20031;-73
2023/01/31 13:12:08;;;;;;;2.58;1.50;;;;;;;;;;5071635;28;20058;-72
2023/01/31 13:14:40;;;;;;;4.05;1.55;;;;;;;;;;5073645;28;20538;-71
2023/01/31 13:17:11;;;;;;;3.83;1.67;;;;;;;;;;5071458;28;20024;-71
2023/01/31 13:19:50;;;;;;;2.88;1.73;;;;;;;;;;5075323;28;20024;-72
2023/01/31 13:22:30;;;;;;;3.22;1.42;;;;;;;;;;5076512;28;20120;-73
2023/01/31 13:25:35;;;;;;;2.20;1.20;;;;;;;;;;5072696;28;20029;-72
2023/01/31 13:28:00;;;;;;;5.53;1.40;;;;;;;;;;5059855;28;20052;-71
2023/01/31 13:30:42;;;;;;;4.03;1.60;;;;;;;;;;5068232;28;20468;-70
2023/01/31 13:33:20;;;;;;;4.97;1.77;;;;;;;;;;5070630;28;20116;-72
2023/01/31 13:36:01;;;;;;;2.70;1.50;;;;;;;;;;5068950;28;20032;-71
2023/01/31 13:38:34;;;;;;;4.25;1.50;;;;;;;;;;5069136;28;20112;-72
2023/01/31 13:41:02;;;;;;;2.40;1.40;;;;;;;;;;5069219;28;20029;-72
2023/01/31 13:43:28;;;;;;;3.65;1.48;;;;;;;;;;5069598;28;20108;-71
2023/01/31 13:46:01;;;;;;;4.88;1.30;;;;;;;;;;5069562;28;20712;-71
2023/01/31 13:48:39;;;;;;;3.65;1.42;;;;;;;;;;5068784;28;20043;-71
2023/01/31 13:51:17;;;;;;;2.78;1.52;;;;;;;;;;5070681;28;20052;-71
2023/01/31 13:53:49;;;;;;;2.42;1.33;;;;;;;;;;5071023;28;20595;-72
2023/01/31 13:56:23;;;;;;;2.05;1.30;;;;;;;;;;5070394;28;20572;-71
2023/01/31 13:58:50;;;;;;;2.72;1.20;;;;;;;;;;5070396;28;20025;-72
2023/01/31 14:01:25;;;;;;;3.65;1.33;;;;;;;;;;5070261;28;20017;-73
2023/01/31 14:04:13;;;;;;;2.80;1.20;;;;;;;;;;5070017;28;20051;-72
2023/01/31 14:06:57;;;;;;;2.92;1.42;;;;;;;;;;5070153;28;20057;-71
2023/01/31 14:09:25;;;;;;;2.20;1.25;;;;;;;;;;5070173;28;20020;-71
2023/01/31 14:11:51;;;;;;;4.00;1.50;;;;;;;;;;5070213;28;20056;-71
2023/01/31 14:14:40;;;;;;;6.15;2.70;;;;;;;;;;5070453;28;20024;-71
2023/01/31 14:17:21;;;;;;;4.30;1.80;;;;;;;;;;5069944;28;20094;-71
2023/01/31 14:19:46;;;;;;;5.93;2.00;;;;;;;;;;5069719;28;20031;-71
2023/01/31 14:22:15;;;;;;;4.10;2.03;;;;;;;;;;5069971;28;20420;-71
2023/01/31 14:24:54;;;;;;;4.03;2.10;;;;;;;;;;5070058;28;20078;-71
2023/01/31 14:27:27;;;;;;;7.65;2.95;;;;;;;;;;5069701;28;20016;-71
2023/01/31 14:30:18;;;;;;;5.72;2.00;;;;;;;;;;5070161;28;20020;-72
2023/01/31 14:32:48;;;;;;;6.85;1.90;;;;;;;;;;5051860;28;20029;-72
2023/01/31 14:35:14;;;;;;;;;;;;;;;;;;5070162;28;20107;-71
2023/01/31 14:38:03;;;;;;;4.17;1.90;;;;;;;;;;5069428;28;20007;-72
2023/01/31 14:40:35;;;;;;;3.92;1.95;;;;;;;;;;5069727;28;20835;-72
2023/01/31 14:43:52;;;;;;;7.43;2.38;;;;;;;;;;5069411;28;20172;-71
2023/01/31 14:46:46;;;;;;;6.28;2.60;;;;;;;;;;5046297;28;20121;-71
2023/01/31 14:49:49;;;;;;;4.28;1.90;;;;;;;;;;5068767;28;20583;-72
2023/01/31 14:52:47;;;;;;;3.90;1.77;;;;;;;;;;5026906;28;20049;-72
2023/01/31 14:55:23;;;;;;;3.72;1.42;;;;;;;;;;5026654;28;20061;-72
2023/01/31 14:57:54;;;;;;;3.83;1.27;;;;;;;;;;5058635;28;20053;-74
2023/01/31 15:00:27;;;;;;;5.35;1.38;;;;;;;;;;5072924;28;20021;-73
2023/01/31 15:03:01;;;;;;;2.58;1.30;;;;;;;;;;5073033;28;20079;-73
2023/01/31 15:05:43;;;;;;;3.53;1.60;;;;;;;;;;5069367;28;20075;-73
2023/01/31 15:08:14;;;;;;;4.32;1.50;;;;;;;;;;5073666;28;20025;-73
2023/01/31 15:11:00;;;;;;;1.95;1.20;;;;;;;;;;5074333;28;20029;-72